LiveATC.Net - Listen to live air traffic control over the Internet!


ICAO: KFKA  IATA: FKA   Airport: Fillmore County Airport
City: Preston   State/Province: Minnesota
Country: United States   Continent: North America
KFKA METAR Weather: KFKA 261115Z AUTO 31009KT 10SM CLR 06/03 A2997 RMK AO2 T00630027
KFKA ADS-B Flight Tracking (ADSBExchange)
KFKA Flight Activity (FlightAware)
KFKA Airport Info   (iFlightPlanner)
KFKA VFR Sectional Chart   (iFlightPlanner) 
KFKA IFR Low Altitude Chart   (iFlightPlanner) 
KFKA IFR High Altitude Chart   (iFlightPlanner) 

KFKA CTAF
Feed Status: UP   Listeners: 0
Listen in your browser - HTML5 player (in browser, HTML5)
Click here to listen with your own player (launches your MP3 player)
Archive Access: KFKA CTAF
FacilityFrequency
Preston CTAF122.900

NOTICE

Unauthorized use prohibited. See LiveATC.net Terms of Service


Airport/ARTCC Code
Frequency Search
(e.g., 124.400, 128.75)
Site-wide search
 


Browse Feeds
Top 50 Feeds
HF Oceanic Feeds
Coverage Map
Bad Weather Areas

LiveATC FAQ
Offer LiveATC feed
Contact LiveATC.net
Press Inquiries

LiveATC on iPhone
LiveATC on Android

LiveATC Mobile
(Mobile browser)

ATC Audio Archives
Interesting Recordings

LiveATC Forums


Home Page
About LiveATC.net


Terms of Use
Privacy Policy

AIRMETs/SIGMETs

FAA Airport Status
NAS Status
Arrival Demand


Server Software By:
Icecast.org
Liquidsoap